Time;durP1;ratioP1;P1;durP2;ratioP2;P2;SDS_P1;SDS_P2;PMS_P1;PMS_P2;Temp;Humidity;BMP_temperature;BMP_pressure;BME280_temperature;BME280_humidity;BME280_pressure;Samples;Min_cycle;Max_cycle;Signal;HPM_P1;HPM_P2
2024/03/20 00:01:26;;;;;;;8.80;6.27;;;11.20;99.90;;;;;;5011765;28;20218;-74
2024/03/20 00:03:52;;;;;;;8.03;6.10;;;11.20;99.90;;;;;;5011253;28;20176;-74
2024/03/20 00:06:18;;;;;;;6.50;5.90;;;11.10;99.90;;;;;;5011245;28;20713;-74
2024/03/20 00:08:44;;;;;;;7.23;5.97;;;11.10;99.90;;;;;;5011312;28;20179;-74
2024/03/20 00:11:09;;;;;;;8.13;5.73;;;11.00;99.90;;;;;;5011585;28;20330;-75
2024/03/20 00:13:35;;;;;;;7.40;5.87;;;11.00;99.90;;;;;;5011662;28;20210;-75
2024/03/20 00:16:00;;;;;;;8.87;6.33;;;11.00;99.90;;;;;;5010685;28;20208;-74
2024/03/20 00:18:26;;;;;;;10.53;6.37;;;10.90;99.90;;;;;;5011090;28;20254;-74
2024/03/20 00:20:52;;;;;;;7.17;6.07;;;10.90;99.90;;;;;;5014586;28;20352;-74
2024/03/20 00:23:17;;;;;;;7.93;6.07;;;10.80;99.90;;;;;;5015432;28;20168;-74
2024/03/20 00:25:43;;;;;;;6.00;5.50;;;10.80;99.90;;;;;;5015292;28;20192;-73
2024/03/20 00:28:08;;;;;;;7.20;6.10;;;10.70;99.90;;;;;;5014978;28;20178;-73
2024/03/20 00:30:36;;;;;;;6.17;5.57;;;10.70;99.90;;;;;;5015512;28;20713;-74
2024/03/20 00:33:03;;;;;;;6.57;5.70;;;10.60;99.90;;;;;;5015248;28;20180;-74
2024/03/20 00:35:28;;;;;;;7.07;5.70;;;10.60;99.90;;;;;;5015032;28;20191;-74
2024/03/20 00:37:54;;;;;;;7.03;6.30;;;10.60;99.90;;;;;;5015229;28;20177;-74
2024/03/20 00:40:19;;;;;;;7.23;6.50;;;10.60;99.90;;;;;;5015124;28;20748;-74
2024/03/20 00:42:45;;;;;;;6.73;6.20;;;10.50;99.90;;;;;;5015001;28;20168;-74
2024/03/20 00:45:11;;;;;;;7.00;6.40;;;10.50;99.90;;;;;;5014883;28;20211;-74
2024/03/20 00:47:36;;;;;;;9.53;6.60;;;10.50;99.90;;;;;;5015168;28;20645;-74
2024/03/20 00:50:02;;;;;;;10.67;7.07;;;10.50;99.90;;;;;;5015120;28;20192;-74
2024/03/20 00:52:27;;;;;;;8.47;7.30;;;10.50;99.90;;;;;;5015106;28;20218;-74
2024/03/20 00:54:53;;;;;;;7.10;6.40;;;10.50;99.90;;;;;;5014613;28;20669;-74
2024/03/20 00:57:18;;;;;;;8.33;7.10;;;10.50;99.90;;;;;;5015234;28;20200;-74
2024/03/20 00:59:44;;;;;;;9.10;6.83;;;10.40;99.90;;;;;;5014853;28;20192;-74
2024/03/20 01:02:10;;;;;;;8.57;7.13;;;10.40;99.90;;;;;;5014975;28;20172;-74
2024/03/20 01:04:35;;;;;;;13.53;7.13;;;10.40;99.90;;;;;;5014354;28;20204;-74
2024/03/20 01:07:01;;;;;;;9.47;7.13;;;10.40;99.90;;;;;;5014981;28;20168;-74
2024/03/20 01:09:26;;;;;;;7.53;6.80;;;10.40;99.90;;;;;;5014776;28;20181;-74
2024/03/20 01:11:52;;;;;;;8.97;6.83;;;10.30;99.90;;;;;;5014483;28;20183;-74
2024/03/20 01:14:18;;;;;;;9.03;7.30;;;10.30;99.90;;;;;;5014416;28;20169;-74
2024/03/20 01:16:43;;;;;;;9.43;7.43;;;10.30;99.90;;;;;;5014204;28;20230;-73
2024/03/20 01:19:09;;;;;;;8.50;7.60;;;10.20;99.90;;;;;;5013875;28;21898;-74
2024/03/20 01:21:35;;;;;;;8.20;7.37;;;10.20;99.90;;;;;;5013200;28;20390;-74
2024/03/20 01:24:01;;;;;;;9.17;8.27;;;10.20;99.90;;;;;;5014127;28;20595;-74
2024/03/20 01:26:26;;;;;;;8.33;7.53;;;10.10;99.90;;;;;;5014190;28;20531;-74
2024/03/20 01:28:52;;;;;;;11.17;7.90;;;10.00;1.00;;;;;;5014282;28;20186;-74
2024/03/20 01:31:17;;;;;;;8.50;7.70;;;10.00;99.90;;;;;;5013310;28;20163;-74
2024/03/20 01:33:43;;;;;;;13.77;7.80;;;10.00;99.90;;;;;;5014176;28;20176;-74
2024/03/20 01:36:08;;;;;;;8.50;7.70;;;9.90;99.90;;;;;;5013863;28;20273;-74
2024/03/20 01:38:34;;;;;;;10.07;7.70;;;9.90;99.90;;;;;;5014322;28;20174;-74
2024/03/20 01:40:59;;;;;;;10.53;8.27;;;9.80;99.90;;;;;;5014290;28;20215;-74
2024/03/20 01:43:25;;;;;;;13.27;8.43;;;9.80;99.90;;;;;;5014091;28;20176;-74
2024/03/20 01:45:51;;;;;;;8.57;7.67;;;9.70;1.00;;;;;;5013451;28;20614;-73
2024/03/20 01:48:17;;;;;;;7.87;7.10;;;9.60;1.00;;;;;;5014040;28;20197;-73
2024/03/20 01:50:44;;;;;;;11.57;7.90;;;9.60;1.00;;;;;;5013498;28;20188;-73
2024/03/20 01:53:11;;;;;;;9.70;8.73;;;9.50;1.00;;;;;;5013983;28;20176;-74
2024/03/20 01:55:37;;;;;;;9.23;8.03;;;9.50;1.00;;;;;;5013455;28;20195;-74
2024/03/20 01:58:03;;;;;;;9.87;8.87;;;9.40;69.00;;;;;;5013427;28;20671;-73
2024/03/20 02:00:30;;;;;;;11.10;8.90;;;9.40;99.90;;;;;;5013895;28;20684;-73
2024/03/20 02:02:58;;;;;;;9.90;8.90;;;9.40;99.90;;;;;;5013544;28;20256;-74
2024/03/20 02:05:24;;;;;;;12.47;10.03;;;9.30;1.00;;;;;;5013279;28;20242;-74
2024/03/20 02:07:53;;;;;;;14.17;10.67;;;9.30;1.00;;;;;;5013455;28;20172;-74
2024/03/20 02:10:19;;;;;;;11.60;10.40;;;9.30;1.00;;;;;;4994233;28;20173;-74
2024/03/20 02:12:45;;;;;;;13.90;11.93;;;9.30;1.00;;;;;;4993988;28;20180;-74
2024/03/20 02:15:12;;;;;;;13.20;11.23;;;9.30;1.00;;;;;;4994093;28;20564;-74
2024/03/20 02:17:40;;;;;;;12.67;11.23;;;9.20;1.00;;;;;;4995142;28;20542;-74
2024/03/20 02:20:08;;;;;;;16.40;13.30;;;9.20;1.00;;;;;;5013174;28;20737;-74
2024/03/20 02:22:44;;;;;;;14.67;13.03;;;9.20;7.30;;;;;;5013260;28;20172;-74
2024/03/20 02:25:10;;;;;;;14.20;12.17;;;9.20;1.00;;;;;;5013090;28;20254;-74
2024/03/20 02:27:36;;;;;;;16.47;13.40;;;9.20;1.00;;;;;;5013616;28;20606;-73
2024/03/20 02:30:10;;;;;;;15.43;13.47;;;9.10;5.20;;;;;;5013119;28;20172;-74
2024/03/20 02:32:40;;;;;;;14.83;13.20;;;9.10;65.80;;;;;;5011713;28;20176;-74
2024/03/20 02:35:06;;;;;;;20.17;13.80;;;9.10;65.70;;;;;;5012759;28;20204;-74
2024/03/20 02:37:32;;;;;;;17.03;12.73;;;9.10;78.50;;;;;;5012997;28;20199;-74
2024/03/20 02:39:58;;;;;;;20.47;14.07;;;9.10;92.90;;;;;;5012744;28;20199;-73
2024/03/20 02:42:24;;;;;;;17.27;13.73;;;9.10;75.40;;;;;;5012398;28;20164;-74
2024/03/20 02:44:50;;;;;;;21.90;14.47;;;9.00;46.00;;;;;;5012157;28;20577;-74
2024/03/20 02:47:16;;;;;;;17.87;13.67;;;9.00;94.80;;;;;;5012905;28;20172;-74
2024/03/20 02:49:42;;;;;;;17.53;14.57;;;9.00;97.10;;;;;;5012522;28;20180;-74
2024/03/20 02:52:08;;;;;;;18.33;15.17;;;9.00;93.40;;;;;;5012604;28;20180;-74
2024/03/20 02:54:35;;;;;;;21.73;16.20;;;9.00;99.90;;;;;;5012374;28;20671;-74
2024/03/20 02:57:01;;;;;;;18.90;15.80;;;9.00;99.90;;;;;;5012565;28;20168;-74
2024/03/20 02:59:26;;;;;;;21.80;16.50;;;9.00;99.90;;;;;;5012904;28;20195;-74
2024/03/20 03:01:52;;;;;;;21.57;15.80;;;8.90;99.90;;;;;;5012454;28;20172;-74
2024/03/20 03:04:18;;;;;;;20.23;16.50;;;9.00;99.90;;;;;;5012021;28;20177;-74
2024/03/20 03:06:43;;;;;;;18.13;14.90;;;8.90;99.90;;;;;;5012423;28;20534;-74
2024/03/20 03:09:13;;;;;;;21.27;15.33;;;8.90;99.90;;;;;;5012351;28;20183;-74
2024/03/20 03:11:40;;;;;;;18.90;15.13;;;8.90;99.90;;;;;;5012890;28;20234;-74
2024/03/20 03:14:05;;;;;;;18.97;15.50;;;8.90;99.90;;;;;;5012269;28;20172;-74
2024/03/20 03:16:31;;;;;;;18.83;15.57;;;9.00;99.90;;;;;;5012457;28;20519;-74
2024/03/20 03:18:56;;;;;;;17.53;15.50;;;8.90;99.90;;;;;;5012459;28;20172;-74
2024/03/20 03:21:22;;;;;;;19.90;15.90;;;9.00;99.90;;;;;;5012448;28;20594;-74
2024/03/20 03:23:47;;;;;;;19.67;14.97;;;9.00;99.90;;;;;;5011943;28;20187;-74
2024/03/20 03:26:13;;;;;;;18.27;14.37;;;9.00;99.90;;;;;;5011869;28;20192;-74
2024/03/20 03:28:38;;;;;;;19.93;14.97;;;9.00;99.90;;;;;;5012243;28;20168;-73
2024/03/20 03:31:04;;;;;;;20.13;14.70;;;9.00;99.90;;;;;;5011800;28;20226;-74
2024/03/20 03:33:30;;;;;;;18.67;14.70;;;9.00;99.90;;;;;;5012108;28;20545;-74
2024/03/20 03:36:09;;;;;;;19.27;15.40;;;9.00;99.90;;;;;;5011645;28;20278;-74
2024/03/20 03:38:35;;;;;;;17.23;13.93;;;9.00;99.90;;;;;;5012201;28;20176;-74
2024/03/20 03:41:01;;;;;;;19.37;14.67;;;8.90;99.90;;;;;;5011949;28;20259;-74
2024/03/20 03:43:28;;;;;;;20.40;15.13;;;8.90;99.90;;;;;;5012210;28;20659;-74
2024/03/20 03:45:53;;;;;;;20.57;15.30;;;8.90;99.90;;;;;;5011325;28;20207;-73
2024/03/20 03:48:19;;;;;;;20.83;15.60;;;8.90;99.90;;;;;;5012146;28;20538;-74
2024/03/20 03:50:47;;;;;;;19.40;14.87;;;8.90;99.90;;;;;;5012248;28;20176;-74
2024/03/20 03:53:13;;;;;;;21.10;14.47;;;8.90;99.90;;;;;;5012002;28;20183;-74
2024/03/20 03:55:39;;;;;;;18.87;14.90;;;8.80;99.90;;;;;;5010596;28;20204;-74
2024/03/20 03:58:05;;;;;;;19.83;15.53;;;8.80;99.90;;;;;;5011646;28;20191;-74
2024/03/20 04:00:31;;;;;;;19.27;14.80;;;8.80;99.90;;;;;;5011750;28;20571;-73
2024/03/20 04:02:57;;;;;;;16.50;14.40;;;8.80;99.90;;;;;;5011286;28;20188;-73
2024/03/20 04:05:22;;;;;;;18.53;15.20;;;8.80;99.90;;;;;;5011730;28;20211;-72
2024/03/20 04:07:48;;;;;;;16.20;14.50;;;8.80;99.90;;;;;;5011646;28;20227;-72
2024/03/20 04:10:14;;;;;;;17.40;14.07;;;8.70;99.90;;;;;;5011569;28;20183;-72
2024/03/20 04:12:40;;;;;;;16.33;13.47;;;8.70;99.90;;;;;;5011585;28;20649;-72
2024/03/20 04:15:07;;;;;;;19.47;14.27;;;8.70;99.90;;;;;;5011202;28;20228;-72
2024/03/20 04:17:33;;;;;;;19.53;14.07;;;8.60;99.90;;;;;;5011307;28;20184;-72
2024/03/20 04:19:58;;;;;;;17.87;14.20;;;8.60;99.90;;;;;;5011083;28;20579;-72
2024/03/20 04:22:24;;;;;;;18.77;14.40;;;8.50;99.90;;;;;;5011590;28;20175;-72
2024/03/20 04:24:49;;;;;;;19.57;13.97;;;8.60;99.90;;;;;;5011013;28;20420;-72
2024/03/20 04:27:15;;;;;;;18.43;14.10;;;8.50;99.90;;;;;;5011624;28;20622;-73
2024/03/20 04:29:41;;;;;;;17.47;13.07;;;8.50;99.90;;;;;;5011520;28;20172;-72
2024/03/20 04:32:06;;;;;;;16.30;13.20;;;8.40;99.90;;;;;;5011141;28;20183;-73
2024/03/20 04:34:32;;;;;;;15.43;13.27;;;8.40;99.90;;;;;;5011282;28;20188;-72
2024/03/20 04:36:57;;;;;;;18.97;13.93;;;8.40;99.90;;;;;;5011293;28;20177;-72
2024/03/20 04:39:56;;;;;;;18.70;13.37;;;8.40;99.90;;;;;;5011394;28;20565;-72
2024/03/20 04:42:14;;;;;;;16.57;13.10;;;8.40;99.90;;;;;;5008062;28;20188;-72
2024/03/20 04:44:40;;;;;;;17.43;13.57;;;8.40;99.90;;;;;;5010908;28;20238;-72
2024/03/20 04:47:06;;;;;;;17.37;12.83;;;8.40;99.90;;;;;;5011283;28;20592;-73
2024/03/20 04:49:32;;;;;;;18.03;12.43;;;8.40;99.90;;;;;;5011389;28;20176;-73
2024/03/20 04:51:58;;;;;;;15.70;12.80;;;8.40;99.90;;;;;;5011183;28;20542;-72
2024/03/20 04:54:23;;;;;;;20.10;13.80;;;8.40;99.90;;;;;;5010993;28;20191;-72
2024/03/20 04:56:49;;;;;;;13.03;11.50;;;8.50;99.90;;;;;;5010637;28;20180;-72
2024/03/20 04:59:14;;;;;;;18.90;12.27;;;8.50;99.90;;;;;;5011327;28;20263;-72
2024/03/20 05:01:40;;;;;;;18.93;12.87;;;8.50;99.90;;;;;;5011177;28;20607;-72
2024/03/20 05:04:06;;;;;;;14.17;12.67;;;8.60;99.90;;;;;;5010727;28;20176;-72
2024/03/20 05:06:31;;;;;;;20.07;13.20;;;8.60;99.90;;;;;;5013392;28;20342;-72
2024/03/20 05:08:57;;;;;;;17.63;12.20;;;8.60;99.90;;;;;;5014560;28;20267;-72
2024/03/20 05:11:22;;;;;;;19.37;12.57;;;8.60;99.90;;;;;;5014955;28;20168;-72
2024/03/20 05:13:48;;;;;;;17.53;13.30;;;8.60;99.90;;;;;;5015220;28;20195;-73
2024/03/20 05:16:13;;;;;;;15.80;12.87;;;8.60;99.90;;;;;;5014501;28;20723;-72
2024/03/20 05:18:39;;;;;;;16.80;12.37;;;8.60;99.90;;;;;;5014455;28;20195;-72
2024/03/20 05:21:05;;;;;;;16.27;12.30;;;8.60;99.90;;;;;;5014471;28;20207;-72
2024/03/20 05:23:30;;;;;;;17.73;11.90;;;8.70;99.90;;;;;;5014344;28;20195;-72
2024/03/20 05:25:57;;;;;;;17.13;12.80;;;8.60;99.90;;;;;;5014112;28;20292;-72
2024/03/20 05:28:24;;;;;;;17.30;12.73;;;8.60;99.90;;;;;;5014585;28;20547;-72
2024/03/20 05:30:50;;;;;;;14.27;12.30;;;8.70;99.90;;;;;;5014428;28;20199;-73
2024/03/20 05:33:18;;;;;;;17.60;12.30;;;8.60;99.90;;;;;;5014428;28;20660;-72
2024/03/20 05:35:44;;;;;;;17.67;13.50;;;8.60;99.90;;;;;;5014015;28;20600;-74
2024/03/20 05:38:10;;;;;;;14.97;12.60;;;8.60;99.90;;;;;;5014283;28;20188;-73
2024/03/20 05:40:37;;;;;;;14.93;12.57;;;8.60;99.90;;;;;;5014247;28;20203;-73
2024/03/20 05:43:04;;;;;;;17.37;13.20;;;8.60;99.90;;;;;;5014061;28;20171;-73
2024/03/20 05:45:30;;;;;;;20.00;13.03;;;8.60;99.90;;;;;;5014301;28;20278;-73
2024/03/20 05:47:55;;;;;;;16.57;13.00;;;8.60;99.90;;;;;;5014185;28;20204;-73
2024/03/20 05:50:21;;;;;;;16.17;12.23;;;8.70;99.90;;;;;;5014225;28;20176;-73
2024/03/20 05:52:46;;;;;;;15.13;12.73;;;8.70;99.90;;;;;;5013725;28;20172;-73
2024/03/20 05:55:14;;;;;;;16.40;13.17;;;8.70;99.90;;;;;;5014067;28;20519;-73
2024/03/20 05:57:40;;;;;;;18.13;12.73;;;8.70;99.90;;;;;;5014232;28;20184;-73
2024/03/20 06:00:14;;;;;;;14.57;12.20;;;8.80;99.90;;;;;;5014308;28;20286;-73
2024/03/20 06:02:40;;;;;;;21.07;13.10;;;8.80;99.90;;;;;;5013667;28;20537;-73
2024/03/20 06:05:06;;;;;;;15.80;12.30;;;8.90;99.90;;;;;;5013602;28;20212;-73
2024/03/20 06:07:32;;;;;;;16.60;12.60;;;9.00;99.90;;;;;;5014070;28;20176;-74
2024/03/20 06:09:57;;;;;;;15.40;12.87;;;9.00;99.90;;;;;;5013621;28;20226;-73
2024/03/20 06:12:23;;;;;;;17.70;13.00;;;9.00;99.90;;;;;;5013487;28;20559;-73
2024/03/20 06:14:48;;;;;;;17.63;12.70;;;9.20;99.90;;;;;;5012953;28;20199;-74
2024/03/20 06:17:15;;;;;;;19.47;12.90;;;9.20;99.90;;;;;;5012470;28;20318;-73
2024/03/20 06:19:41;;;;;;;17.83;12.50;;;9.30;99.90;;;;;;5013387;28;20191;-73
2024/03/20 06:22:06;;;;;;;17.83;13.47;;;9.30;99.90;;;;;;5013042;28;20191;-73
2024/03/20 06:24:32;;;;;;;17.17;13.13;;;9.30;99.90;;;;;;5011572;28;20188;-73
2024/03/20 06:26:58;;;;;;;16.17;12.30;;;9.40;99.90;;;;;;5013297;28;20240;-74
2024/03/20 06:29:23;;;;;;;17.20;14.03;;;9.50;99.90;;;;;;5013180;28;20187;-73
2024/03/20 06:31:50;;;;;;;17.67;12.17;;;9.60;99.90;;;;;;5013228;28;20231;-73
2024/03/20 06:34:15;;;;;;;19.40;12.77;;;9.70;99.90;;;;;;5013134;28;20190;-73
2024/03/20 06:36:41;;;;;;;21.17;12.43;;;9.80;99.90;;;;;;5013471;28;20246;-74
2024/03/20 06:39:08;;;;;;;15.70;12.40;;;9.90;99.90;;;;;;5012282;28;20719;-73
2024/03/20 06:41:34;;;;;;;19.30;12.40;;;10.00;99.90;;;;;;5013354;28;20203;-74
2024/03/20 06:44:00;;;;;;;14.67;11.70;;;10.10;99.90;;;;;;5012845;28;20208;-74
2024/03/20 06:46:26;;;;;;;16.13;11.87;;;10.20;99.90;;;;;;5012591;28;20192;-73
2024/03/20 06:48:52;;;;;;;14.37;12.67;;;10.30;99.90;;;;;;5012776;28;20202;-73
2024/03/20 06:51:22;;;;;;;14.53;12.17;;;10.40;99.90;;;;;;5012790;28;20601;-73
2024/03/20 06:53:48;;;;;;;12.97;11.50;;;10.40;99.90;;;;;;5012661;28;20256;-73
2024/03/20 06:56:13;;;;;;;14.70;11.20;;;10.60;99.90;;;;;;5011931;28;20296;-74
2024/03/20 06:58:39;;;;;;;19.20;12.03;;;10.70;99.90;;;;;;5012665;28;20195;-73
2024/03/20 07:01:04;;;;;;;12.83;10.87;;;10.90;99.90;;;;;;5012353;28;20290;-74
2024/03/20 07:03:30;;;;;;;14.63;10.33;;;11.00;99.90;;;;;;5012511;28;20164;-73
2024/03/20 07:05:58;;;;;;;13.60;10.70;;;11.20;99.90;;;;;;5012017;28;20708;-74
2024/03/20 07:08:24;;;;;;;14.47;10.70;;;11.40;99.90;;;;;;5012452;28;20179;-73
2024/03/20 07:10:50;;;;;;;12.90;10.07;;;11.60;99.90;;;;;;5010702;28;20573;-73
2024/03/20 07:13:16;;;;;;;13.07;9.83;;;11.70;99.90;;;;;;5012175;28;20537;-73
2024/03/20 07:15:43;;;;;;;11.23;8.93;;;12.00;99.90;;;;;;5011803;28;20196;-73
2024/03/20 07:18:09;;;;;;;10.13;9.10;;;12.20;99.90;;;;;;5012890;28;20258;-75
2024/03/20 07:20:34;;;;;;;16.23;9.80;;;12.40;99.90;;;;;;5012112;28;20287;-73
2024/03/20 07:23:01;;;;;;;13.03;9.17;;;12.70;99.90;;;;;;5012014;28;20899;-73
2024/03/20 07:25:27;;;;;;;11.97;8.77;;;12.90;99.90;;;;;;5011616;28;20279;-73
2024/03/20 07:27:55;;;;;;;11.67;8.50;;;13.10;99.90;;;;;;5011863;28;20172;-73
2024/03/20 07:30:21;;;;;;;13.43;9.27;;;13.40;99.90;;;;;;5011817;28;20204;-73
2024/03/20 07:32:47;;;;;;;13.17;9.27;;;13.60;99.90;;;;;;5011795;28;20211;-74
2024/03/20 07:35:12;;;;;;;13.60;9.20;;;13.70;99.90;;;;;;5011373;28;20204;-73
2024/03/20 07:37:39;;;;;;;9.87;8.87;;;13.90;99.90;;;;;;5011948;28;20168;-73
2024/03/20 07:40:07;;;;;;;13.40;10.37;;;14.00;99.90;;;;;;5012817;28;20716;-73
2024/03/20 07:42:34;;;;;;;13.07;9.90;;;14.10;99.90;;;;;;5012277;28;20179;-74
2024/03/20 07:44:59;;;;;;;12.77;10.27;;;14.20;99.90;;;;;;5011753;28;20611;-73
2024/03/20 07:47:25;;;;;;;15.27;10.03;;;14.40;99.90;;;;;;5012336;28;20200;-74
2024/03/20 07:49:51;;;;;;;11.90;9.70;;;14.50;99.90;;;;;;5011575;28;20180;-74
2024/03/20 07:52:17;;;;;;;17.07;10.70;;;14.70;99.90;;;;;;5012385;28;20200;-74
2024/03/20 07:54:43;;;;;;;12.30;9.97;;;14.80;99.90;;;;;;5011559;28;20235;-73
2024/03/20 07:57:09;;;;;;;11.40;10.13;;;14.90;99.90;;;;;;5012243;28;20178;-74
2024/03/20 07:59:35;;;;;;;13.30;10.87;;;15.30;99.90;;;;;;5012572;28;20191;-74
2024/03/20 08:02:01;;;;;;;12.27;10.73;;;15.60;99.90;;;;;;5011646;28;20512;-74
2024/03/20 08:04:26;;;;;;;13.63;10.60;;;16.00;99.90;;;;;;5010831;28;20275;-74
2024/03/20 08:06:53;;;;;;;15.90;10.43;;;16.50;99.90;;;;;;5011438;28;20633;-74
2024/03/20 08:09:21;;;;;;;12.70;10.33;;;16.90;99.90;;;;;;5011531;28;20164;-73
2024/03/20 08:11:47;;;;;;;12.20;9.73;;;17.30;99.90;;;;;;5010810;28;20185;-73
2024/03/20 08:14:13;;;;;;;11.50;9.80;;;17.60;99.90;;;;;;5011269;28;20195;-73
2024/03/20 08:16:40;;;;;;;12.43;8.85;;;17.90;99.90;;;;;;5011310;28;20172;-73
2024/03/20 08:19:06;;;;;;;14.20;10.23;;;18.10;99.90;;;;;;5011007;28;20184;-73
2024/03/20 08:21:32;;;;;;;12.93;9.27;;;18.20;99.90;;;;;;5011271;28;20168;-73
2024/03/20 08:23:58;;;;;;;14.10;9.98;;;18.30;99.90;;;;;;5010738;28;20223;-73
2024/03/20 08:26:24;;;;;;;12.55;9.73;;;18.40;99.90;;;;;;5010240;28;20742;-73
2024/03/20 08:28:50;;;;;;;13.75;9.82;;;18.50;99.90;;;;;;5010858;28;20178;-73
2024/03/20 08:31:16;;;;;;;12.15;9.63;;;18.60;99.90;;;;;;5011270;28;20169;-73
2024/03/20 08:33:42;;;;;;;11.52;8.77;;;18.70;99.90;;;;;;5011263;28;20175;-73
2024/03/20 08:36:10;;;;;;;10.52;8.68;;;18.90;99.90;;;;;;5010691;28;20196;-73
2024/03/20 08:38:36;;;;;;;11.15;9.43;;;19.20;99.90;;;;;;5011194;28;20172;-73
2024/03/20 08:41:05;;;;;;;10.95;8.90;;;19.30;99.90;;;;;;5012852;28;20222;-74
2024/03/20 08:43:34;;;;;;;11.02;8.75;;;19.40;99.90;;;;;;5014636;28;20234;-73
2024/03/20 08:46:08;;;;;;;14.77;8.93;;;19.50;99.90;;;;;;5014352;28;20220;-73
2024/03/20 08:48:34;;;;;;;10.57;8.77;;;19.60;99.90;;;;;;5014784;28;20744;-73
2024/03/20 08:51:00;;;;;;;15.02;8.88;;;19.50;99.90;;;;;;5014580;28;20230;-73
2024/03/20 08:53:27;;;;;;;10.32;8.80;;;19.50;99.90;;;;;;5014907;28;20180;-72
2024/03/20 08:55:52;;;;;;;11.38;8.52;;;19.70;99.90;;;;;;5014273;28;20203;-73
2024/03/20 08:58:18;;;;;;;15.15;8.35;;;19.90;99.90;;;;;;5013431;28;20650;-73
2024/03/20 09:00:45;;;;;;;10.95;8.50;;;20.00;99.90;;;;;;5014461;28;20669;-74
2024/03/20 09:03:11;;;;;;;12.75;8.40;;;20.00;99.90;;;;;;5015146;28;20255;-74
2024/03/20 09:05:39;;;;;;;11.20;8.70;;;20.20;99.90;;;;;;5014693;28;20295;-74
2024/03/20 09:08:05;;;;;;;8.98;7.97;;;20.40;99.90;;;;;;5012992;28;20195;-73
2024/03/20 09:10:31;;;;;;;11.18;8.23;;;20.50;99.90;;;;;;5014649;28;20175;-73
2024/03/20 09:12:56;;;;;;;8.82;7.88;;;20.70;99.90;;;;;;5014017;28;20661;-73
2024/03/20 09:15:22;;;;;;;12.15;7.53;;;21.00;99.90;;;;;;5006303;28;20250;-73
2024/03/20 09:17:50;;;;;;;9.00;7.03;;;21.40;99.90;;;;;;4997182;28;20227;-74
2024/03/20 09:20:15;;;;;;;9.90;7.20;;;21.90;99.90;;;;;;5014545;28;20196;-73
2024/03/20 09:22:45;;;;;;;12.32;7.70;;;22.30;99.90;;;;;;5016176;28;20183;-73
2024/03/20 09:25:11;;;;;;;14.27;6.18;;;22.80;99.90;;;;;;5014433;28;20184;-74
2024/03/20 09:27:36;;;;;;;8.75;5.47;;;23.20;97.80;;;;;;5014567;28;20517;-73
2024/03/20 09:30:03;;;;;;;7.78;5.95;;;23.10;93.10;;;;;;5013824;28;20185;-73
2024/03/20 09:32:32;;;;;;;9.88;5.63;;;23.10;94.70;;;;;;5014618;28;20199;-73
2024/03/20 09:35:00;;;;;;;9.10;5.85;;;23.00;93.90;;;;;;5012306;28;20283;-73
2024/03/20 09:37:27;;;;;;;12.75;6.30;;;22.90;92.40;;;;;;5014193;28;20172;-73
2024/03/20 09:39:53;;;;;;;10.23;5.35;;;23.00;93.30;;;;;;5013878;28;20196;-73
2024/03/20 09:42:23;;;;;;;10.80;5.88;;;23.10;94.10;;;;;;5013707;28;20176;-73
2024/03/20 09:44:49;;;;;;;7.53;5.75;;;23.20;94.90;;;;;;4994009;28;20670;-73
2024/03/20 09:47:15;;;;;;;6.43;5.70;;;23.30;92.70;;;;;;5013804;28;20255;-73
2024/03/20 09:49:41;;;;;;;8.13;5.70;;;23.30;92.80;;;;;;5013549;28;20251;-72
2024/03/20 09:52:08;;;;;;;9.43;5.55;;;23.30;93.10;;;;;;5012287;28;20729;-73
2024/03/20 09:54:34;;;;;;;6.22;4.65;;;23.40;92.60;;;;;;5013285;28;20246;-72
2024/03/20 09:57:00;;;;;;;8.68;5.30;;;23.60;94.00;;;;;;5013797;28;20180;-72
2024/03/20 09:59:26;;;;;;;6.90;5.38;;;23.70;92.20;;;;;;5013967;28;20207;-73
2024/03/20 10:01:51;;;;;;;7.95;4.90;;;23.80;91.00;;;;;;5013617;28;20214;-74
2024/03/20 10:04:25;;;;;;;8.50;5.35;;;23.50;90.60;;;;;;5013463;28;20164;-73
2024/03/20 10:06:50;;;;;;;6.70;4.80;;;23.60;92.50;;;;;;5013805;28;20200;-73
2024/03/20 10:09:16;;;;;;;7.43;4.38;;;23.60;90.70;;;;;;5013391;28;20231;-74
2024/03/20 10:11:41;;;;;;;9.85;5.07;;;23.60;85.80;;;;;;5013489;28;20176;-73
2024/03/20 10:14:11;;;;;;;6.80;4.80;;;23.60;91.10;;;;;;5013052;28;20168;-73
2024/03/20 10:16:38;;;;;;;7.47;4.15;;;23.70;92.10;;;;;;5013237;28;20172;-73
2024/03/20 10:19:04;;;;;;;6.40;4.50;;;23.80;90.40;;;;;;5013487;28;20884;-74
2024/03/20 10:21:32;;;;;;;5.43;4.50;;;23.90;91.10;;;;;;5013362;28;20192;-73
2024/03/20 10:23:58;;;;;;;8.38;4.93;;;23.90;89.00;;;;;;5012912;28;20176;-73
2024/03/20 10:26:24;;;;;;;6.80;3.90;;;24.00;88.60;;;;;;5012791;28;20188;-73
2024/03/20 10:28:51;;;;;;;7.53;4.00;;;23.80;82.00;;;;;;5013104;28;20322;-73
2024/03/20 10:31:20;;;;;;;7.72;4.40;;;23.60;89.80;;;;;;5013146;28;20181;-73
2024/03/20 10:33:48;;;;;;;6.22;3.83;;;23.70;87.90;;;;;;5012735;28;20195;-74
2024/03/20 10:36:17;;;;;;;7.00;4.18;;;23.90;90.40;;;;;;5012674;28;20207;-73
2024/03/20 10:38:43;;;;;;;8.60;4.03;;;24.20;81.30;;;;;;5012862;28;20255;-74
2024/03/20 10:41:13;;;;;;;8.27;3.95;;;24.20;84.20;;;;;;5012979;28;20278;-74
2024/03/20 10:43:40;;;;;;;7.35;3.90;;;24.40;81.50;;;;;;5012964;28;20200;-74
2024/03/20 10:46:14;;;;;;;9.30;4.15;;;24.50;83.90;;;;;;5012755;28;20275;-73
2024/03/20 10:48:40;;;;;;;6.47;4.07;;;24.60;81.00;;;;;;5012485;28;20188;-73
2024/03/20 10:51:14;;;;;;;5.80;4.30;;;24.70;81.40;;;;;;5012703;28;20566;-73
2024/03/20 10:53:40;;;;;;;5.18;3.95;;;24.80;77.30;;;;;;5012986;28;20613;-74
2024/03/20 10:56:06;;;;;;;5.63;4.03;;;24.70;80.40;;;;;;5012356;28;20188;-73
2024/03/20 10:58:33;;;;;;;5.18;3.60;;;24.90;75.60;;;;;;5012455;28;20180;-74
2024/03/20 11:00:59;;;;;;;5.47;3.42;;;25.00;77.30;;;;;;5012136;28;20625;-73
2024/03/20 11:03:42;;;;;;;6.30;3.50;;;25.20;77.40;;;;;;5012203;28;20652;-73
2024/03/20 11:06:28;;;;;;;4.80;3.45;;;25.30;75.00;;;;;;5011956;28;20215;-74
2024/03/20 11:09:23;;;;;;;5.80;3.75;;;25.40;72.50;;;;;;5012346;28;20160;-74
2024/03/20 11:11:49;;;;;;;5.70;3.92;;;25.40;70.40;;;;;;5012664;28;20168;-73
2024/03/20 11:14:24;;;;;;;5.80;4.53;;;25.30;72.40;;;;;;5014219;28;20179;-73
2024/03/20 11:16:52;;;;;;;6.90;4.25;;;25.20;73.30;;;;;;5013300;28;20176;-73
2024/03/20 11:19:20;;;;;;;7.45;4.53;;;25.10;67.70;;;;;;5012224;28;20263;-73
2024/03/20 11:21:48;;;;;;;6.35;4.15;;;24.80;66.20;;;;;;5011457;28;20222;-73
2024/03/20 11:24:14;;;;;;;5.10;4.45;;;24.50;69.40;;;;;;5011702;28;20200;-73
2024/03/20 11:26:40;;;;;;;4.82;4.32;;;24.30;72.10;;;;;;5011995;28;20190;-73
2024/03/20 11:29:10;;;;;;;5.85;4.00;;;24.20;66.30;;;;;;5011778;28;20204;-72
2024/03/20 11:31:36;;;;;;;6.03;4.25;;;24.30;71.60;;;;;;5012037;28;20203;-72
2024/03/20 11:34:05;;;;;;;6.32;4.65;;;24.50;74.30;;;;;;5011927;28;20676;-73
2024/03/20 11:36:31;;;;;;;6.47;4.72;;;24.50;69.40;;;;;;5011630;28;20653;-72
2024/03/20 11:38:57;;;;;;;9.43;5.03;;;24.60;70.20;;;;;;5011584;28;20175;-72
2024/03/20 11:41:23;;;;;;;12.45;5.28;;;24.70;68.70;;;;;;5011931;28;20200;-72
2024/03/20 11:43:48;;;;;;;7.35;5.05;;;24.80;75.10;;;;;;5011535;28;20645;-72
2024/03/20 11:46:20;;;;;;;6.53;4.75;;;24.70;64.40;;;;;;5011395;28;20231;-74
2024/03/20 11:48:52;;;;;;;7.90;4.40;;;24.50;73.50;;;;;;5012194;28;20172;-73
2024/03/20 11:51:22;;;;;;;7.22;4.93;;;24.80;74.50;;;;;;5011732;28;20211;-73
2024/03/20 11:53:49;;;;;;;5.60;4.88;;;25.10;67.90;;;;;;5011763;28;20200;-73
2024/03/20 11:56:15;;;;;;;6.47;4.65;;;25.10;69.00;;;;;;5011247;28;20661;-73
2024/03/20 11:58:41;;;;;;;7.57;5.25;;;25.10;64.80;;;;;;5011979;28;20180;-73
2024/03/20 12:01:08;;;;;;;5.68;4.05;;;24.90;60.70;;;;;;5011502;28;20200;-72
2024/03/20 12:03:35;;;;;;;7.05;4.40;;;25.10;64.40;;;;;;5011880;28;20164;-74
2024/03/20 12:06:08;;;;;;;7.28;5.32;;;25.00;66.40;;;;;;5009111;28;20223;-73
2024/03/20 12:08:34;;;;;;;9.45;4.50;;;25.10;62.80;;;;;;5011848;28;20194;-73
2024/03/20 12:11:17;;;;;;;5.35;4.80;;;24.90;65.40;;;;;;5011602;28;20545;-73
2024/03/20 12:13:43;;;;;;;7.47;4.47;;;24.60;67.00;;;;;;5011643;28;20179;-73
2024/03/20 12:16:09;;;;;;;5.28;4.38;;;24.50;61.40;;;;;;5009878;28;20204;-74
2024/03/20 12:18:35;;;;;;;6.68;4.80;;;24.20;65.60;;;;;;5011443;28;20212;-73
2024/03/20 12:21:03;;;;;;;5.50;4.80;;;24.10;67.30;;;;;;5011386;28;20239;-73
2024/03/20 12:23:30;;;;;;;7.45;4.93;;;24.00;64.40;;;;;;5010956;28;20184;-73
2024/03/20 12:25:55;;;;;;;7.47;3.72;;;24.00;70.10;;;;;;5010803;28;20615;-73
2024/03/20 12:28:21;;;;;;;5.38;4.10;;;24.00;66.80;;;;;;5011727;28;20215;-73
2024/03/20 12:30:50;;;;;;;5.30;3.55;;;24.10;59.60;;;;;;5011420;28;20184;-73
2024/03/20 12:33:16;;;;;;;6.60;4.00;;;24.30;63.00;;;;;;5011413;28;20172;-73
2024/03/20 12:35:41;;;;;;;6.28;3.15;;;24.70;59.80;;;;;;5011131;28;20694;-73
2024/03/20 12:38:08;;;;;;;4.28;3.20;;;25.00;64.80;;;;;;5011425;28;20223;-73